sensor_id;sensor_type;location;lat;lon;timestamp;pressure;altitude;pressure_sealevel;temperature;humidity
71907;BME280;59781;52.090;5.030;2023-04-24T00:00:19;99828.25;;;9.20;100.00
71907;BME280;59781;52.090;5.030;2023-04-24T00:02:45;99832.78;;;9.19;100.00
71907;BME280;59781;52.090;5.030;2023-04-24T00:05:14;99833.81;;;9.18;100.00
71907;BME280;59781;52.090;5.030;2023-04-24T00:07:41;99831.03;;;9.27;100.00
71907;BME280;59781;52.090;5.030;2023-04-24T00:10:08;99836.19;;;9.13;100.00
71907;BME280;59781;52.090;5.030;2023-04-24T00:12:35;99832.03;;;9.26;100.00
71907;BME280;59781;52.090;5.030;2023-04-24T00:15:02;99829.91;;;9.36;100.00
71907;BME280;59781;52.090;5.030;2023-04-24T00:17:28;99841.25;;;9.53;100.00
71907;BME280;59781;52.090;5.030;2023-04-24T00:19:54;99847.03;;;9.35;100.00
71907;BME280;59781;52.090;5.030;2023-04-24T00:22:27;99838.41;;;9.39;100.00
71907;BME280;59781;52.090;5.030;2023-04-24T00:24:54;99840.44;;;9.37;100.00
71907;BME280;59781;52.090;5.030;2023-04-24T00:27:20;99839.53;;;9.45;100.00
71907;BME280;59781;52.090;5.030;2023-04-24T00:29:46;99849.06;;;9.47;100.00
71907;BME280;59781;52.090;5.030;2023-04-24T00:32:13;99849.88;;;9.48;100.00
71907;BME280;59781;52.090;5.030;2023-04-24T00:34:39;99842.13;;;9.38;100.00
71907;BME280;59781;52.090;5.030;2023-04-24T00:37:06;99853.59;;;9.32;100.00
71907;BME280;59781;52.090;5.030;2023-04-24T00:39:32;99856.53;;;9.52;100.00
71907;BME280;59781;52.090;5.030;2023-04-24T00:41:58;99861.03;;;9.45;100.00
71907;BME280;59781;52.090;5.030;2023-04-24T00:44:24;99853.97;;;9.44;100.00
71907;BME280;59781;52.090;5.030;2023-04-24T00:46:50;99855.78;;;9.58;100.00
71907;BME280;59781;52.090;5.030;2023-04-24T00:49:20;99858.13;;;9.83;100.00
71907;BME280;59781;52.090;5.030;2023-04-24T00:51:47;99847.94;;;9.78;100.00
71907;BME280;59781;52.090;5.030;2023-04-24T00:54:14;99851.38;;;9.72;100.00
71907;BME280;59781;52.090;5.030;2023-04-24T00:56:42;99853.75;;;9.96;100.00
71907;BME280;59781;52.090;5.030;2023-04-24T00:59:09;99864.06;;;9.57;100.00
71907;BME280;59781;52.090;5.030;2023-04-24T01:01:35;99859.88;;;9.90;100.00
71907;BME280;59781;52.090;5.030;2023-04-24T01:04:02;99859.97;;;9.82;100.00
71907;BME280;59781;52.090;5.030;2023-04-24T01:06:29;99860.88;;;9.53;100.00
71907;BME280;59781;52.090;5.030;2023-04-24T01:08:59;99856.44;;;9.60;100.00
71907;BME280;59781;52.090;5.030;2023-04-24T01:11:26;99861.63;;;9.62;100.00
71907;BME280;59781;52.090;5.030;2023-04-24T01:13:52;99860.03;;;9.67;100.00
71907;BME280;59781;52.090;5.030;2023-04-24T01:16:18;99856.75;;;9.87;100.00
71907;BME280;59781;52.090;5.030;2023-04-24T01:18:46;99856.09;;;9.85;100.00
71907;BME280;59781;52.090;5.030;2023-04-24T01:21:14;99863.69;;;9.81;100.00
71907;BME280;59781;52.090;5.030;2023-04-24T01:23:45;99861.03;;;10.02;100.00
71907;BME280;59781;52.090;5.030;2023-04-24T01:26:13;99854.69;;;9.89;100.00
71907;BME280;59781;52.090;5.030;2023-04-24T01:28:40;99862.53;;;10.05;100.00
71907;BME280;59781;52.090;5.030;2023-04-24T01:31:06;99867.06;;;9.68;100.00
71907;BME280;59781;52.090;5.030;2023-04-24T01:33:32;99865.31;;;9.61;100.00
71907;BME280;59781;52.090;5.030;2023-04-24T01:35:58;99859.97;;;9.82;100.00
71907;BME280;59781;52.090;5.030;2023-04-24T01:38:25;99863.81;;;9.73;100.00
71907;BME280;59781;52.090;5.030;2023-04-24T01:40:52;99862.00;;;9.95;100.00
71907;BME280;59781;52.090;5.030;2023-04-24T01:43:18;99858.41;;;9.88;100.00
71907;BME280;59781;52.090;5.030;2023-04-24T01:45:44;99856.88;;;10.00;100.00
71907;BME280;59781;52.090;5.030;2023-04-24T01:48:11;99859.22;;;9.88;100.00
71907;BME280;59781;52.090;5.030;2023-04-24T01:50:38;99860.56;;;9.77;100.00
71907;BME280;59781;52.090;5.030;2023-04-24T01:53:04;99870.28;;;9.78;100.00
71907;BME280;59781;52.090;5.030;2023-04-24T01:55:31;99868.00;;;9.75;100.00
71907;BME280;59781;52.090;5.030;2023-04-24T01:57:59;99863.16;;;9.86;100.00
71907;BME280;59781;52.090;5.030;2023-04-24T02:00:25;99862.56;;;9.90;100.00
71907;BME280;59781;52.090;5.030;2023-04-24T02:02:52;99862.97;;;9.72;100.00
71907;BME280;59781;52.090;5.030;2023-04-24T02:05:18;99862.72;;;10.03;100.00
71907;BME280;59781;52.090;5.030;2023-04-24T02:07:43;99856.09;;;9.85;100.00
71907;BME280;59781;52.090;5.030;2023-04-24T02:10:10;99862.56;;;9.90;100.00
71907;BME280;59781;52.090;5.030;2023-04-24T02:12:35;99859.22;;;9.88;100.00
71907;BME280;59781;52.090;5.030;2023-04-24T02:15:01;99867.78;;;10.13;100.00
71907;BME280;59781;52.090;5.030;2023-04-24T02:17:28;99862.41;;;10.13;100.00
71907;BME280;59781;52.090;5.030;2023-04-24T02:19:54;99864.41;;;9.90;100.00
71907;BME280;59781;52.090;5.030;2023-04-24T02:22:19;99866.47;;;9.88;100.00
71907;BME280;59781;52.090;5.030;2023-04-24T02:24:45;99868.78;;;10.12;100.00
71907;BME280;59781;52.090;5.030;2023-04-24T02:27:13;99862.03;;;10.01;100.00
71907;BME280;59781;52.090;5.030;2023-04-24T02:29:40;99859.97;;;9.82;100.00
71907;BME280;59781;52.090;5.030;2023-04-24T02:32:06;99856.16;;;9.91;100.00
71907;BME280;59781;52.090;5.030;2023-04-24T02:34:32;99865.63;;;9.87;100.00
71907;BME280;59781;52.090;5.030;2023-04-24T02:36:58;99862.75;;;10.25;100.00
71907;BME280;59781;52.090;5.030;2023-04-24T02:39:24;99865.16;;;10.41;100.00
71907;BME280;59781;52.090;5.030;2023-04-24T02:41:51;99864.50;;;9.96;100.00
71907;BME280;59781;52.090;5.030;2023-04-24T02:44:17;99861.09;;;10.09;100.00
71907;BME280;59781;52.090;5.030;2023-04-24T02:46:43;99859.84;;;10.05;100.00
71907;BME280;59781;52.090;5.030;2023-04-24T02:49:08;99867.59;;;10.15;100.00
71907;BME280;59781;52.090;5.030;2023-04-24T02:51:34;99863.53;;;10.04;100.00
71907;BME280;59781;52.090;5.030;2023-04-24T02:54:00;99862.16;;;9.72;100.00
71907;BME280;59781;52.090;5.030;2023-04-24T02:56:26;99859.63;;;10.06;100.00
71907;BME280;59781;52.090;5.030;2023-04-24T02:58:53;99857.81;;;9.92;100.00
71907;BME280;59781;52.090;5.030;2023-04-24T03:01:19;99862.41;;;10.13;100.00
71907;BME280;59781;52.090;5.030;2023-04-24T03:03:44;99855.47;;;10.04;100.00
71907;BME280;59781;52.090;5.030;2023-04-24T03:06:10;99845.16;;;9.86;100.00
71907;BME280;59781;52.090;5.030;2023-04-24T03:08:36;99848.44;;;10.03;100.00
71907;BME280;59781;52.090;5.030;2023-04-24T03:11:02;99851.34;;;9.87;100.00
71907;BME280;59781;52.090;5.030;2023-04-24T03:13:27;99852.59;;;9.84;100.00
71907;BME280;59781;52.090;5.030;2023-04-24T03:15:53;99857.69;;;9.79;100.00
71907;BME280;59781;52.090;5.030;2023-04-24T03:18:19;99857.44;;;9.74;100.00
71907;BME280;59781;52.090;5.030;2023-04-24T03:20:47;99856.94;;;10.06;100.00
71907;BME280;59781;52.090;5.030;2023-04-24T03:23:13;99853.41;;;10.06;100.00
71907;BME280;59781;52.090;5.030;2023-04-24T03:25:39;99849.75;;;9.92;100.00
71907;BME280;59781;52.090;5.030;2023-04-24T03:28:06;99855.78;;;9.58;100.00
71907;BME280;59781;52.090;5.030;2023-04-24T03:30:38;99842.19;;;9.81;100.00
71907;BME280;59781;52.090;5.030;2023-04-24T03:33:04;99856.75;;;9.87;100.00
71907;BME280;59781;52.090;5.030;2023-04-24T03:35:33;99848.78;;;9.78;100.00
71907;BME280;59781;52.090;5.030;2023-04-24T03:38:02;99848.25;;;9.68;100.00
71907;BME280;59781;52.090;5.030;2023-04-24T03:40:52;99845.22;;;10.14;100.00
71907;BME280;59781;52.090;5.030;2023-04-24T03:43:34;99837.94;;;9.72;100.00
71907;BME280;59781;52.090;5.030;2023-04-24T03:46:04;99844.31;;;9.86;100.00
71907;BME280;59781;52.090;5.030;2023-04-24T03:48:33;99833.75;;;9.84;100.00
71907;BME280;59781;52.090;5.030;2023-04-24T03:51:00;99840.69;;;10.15;100.00
71907;BME280;59781;52.090;5.030;2023-04-24T03:53:27;99837.72;;;10.31;100.00
71907;BME280;59781;52.090;5.030;2023-04-24T03:55:54;99837.78;;;9.95;100.00
71907;BME280;59781;52.090;5.030;2023-04-24T03:58:20;99844.50;;;9.48;100.00
71907;BME280;59781;52.090;5.030;2023-04-24T04:00:46;99846.16;;;9.49;100.00
71907;BME280;59781;52.090;5.030;2023-04-24T04:03:35;99846.84;;;9.36;100.00
71907;BME280;59781;52.090;5.030;2023-04-24T04:06:01;99843.69;;;9.84;100.00
71907;BME280;59781;52.090;5.030;2023-04-24T04:08:27;99838.63;;;9.59;100.00
71907;BME280;59781;52.090;5.030;2023-04-24T04:10:53;99847.50;;;9.38;100.00
71907;BME280;59781;52.090;5.030;2023-04-24T04:13:18;99851.75;;;9.47;100.00
71907;BME280;59781;52.090;5.030;2023-04-24T04:15:45;99861.19;;;9.43;100.00
71907;BME280;59781;52.090;5.030;2023-04-24T04:18:11;99871.28;;;9.41;100.00
71907;BME280;59781;52.090;5.030;2023-04-24T04:20:37;99864.00;;;9.35;100.00
71907;BME280;59781;52.090;5.030;2023-04-24T04:23:03;99866.75;;;9.57;100.00
71907;BME280;59781;52.090;5.030;2023-04-24T04:25:39;99882.31;;;9.46;100.00
71907;BME280;59781;52.090;5.030;2023-04-24T04:28:05;99881.50;;;9.31;100.00
71907;BME280;59781;52.090;5.030;2023-04-24T04:30:31;99890.28;;;9.40;100.00
71907;BME280;59781;52.090;5.030;2023-04-24T04:33:01;99891.25;;;9.17;100.00
71907;BME280;59781;52.090;5.030;2023-04-24T04:35:28;99896.13;;;9.14;100.00
71907;BME280;59781;52.090;5.030;2023-04-24T04:37:55;99903.34;;;9.13;100.00
71907;BME280;59781;52.090;5.030;2023-04-24T04:40:44;99918.56;;;9.06;100.00
71907;BME280;59781;52.090;5.030;2023-04-24T04:43:11;99924.38;;;9.10;100.00
71907;BME280;59781;52.090;5.030;2023-04-24T04:45:44;99923.09;;;9.06;100.00
71907;BME280;59781;52.090;5.030;2023-04-24T04:48:30;99931.13;;;8.91;100.00
71907;BME280;59781;52.090;5.030;2023-04-24T04:50:59;99926.44;;;8.70;100.00
71907;BME280;59781;52.090;5.030;2023-04-24T04:53:25;99932.13;;;8.75;100.00
71907;BME280;59781;52.090;5.030;2023-04-24T04:55:51;99936.38;;;8.84;100.00
71907;BME280;59781;52.090;5.030;2023-04-24T04:58:19;99938.53;;;9.04;100.00
71907;BME280;59781;52.090;5.030;2023-04-24T05:00:47;99936.59;;;8.98;100.00
71907;BME280;59781;52.090;5.030;2023-04-24T05:03:25;99949.97;;;8.68;100.00
71907;BME280;59781;52.090;5.030;2023-04-24T05:06:02;99949.06;;;8.76;100.00
71907;BME280;59781;52.090;5.030;2023-04-24T05:08:31;99950.38;;;8.95;100.00
71907;BME280;59781;52.090;5.030;2023-04-24T05:10:57;99953.94;;;8.95;100.00
71907;BME280;59781;52.090;5.030;2023-04-24T05:13:26;99960.03;;;9.04;100.00
71907;BME280;59781;52.090;5.030;2023-04-24T05:15:52;99960.84;;;9.04;100.00
71907;BME280;59781;52.090;5.030;2023-04-24T05:18:17;99968.44;;;8.86;100.00
71907;BME280;59781;52.090;5.030;2023-04-24T05:20:43;99972.78;;;8.87;100.00
71907;BME280;59781;52.090;5.030;2023-04-24T05:23:10;99974.44;;;9.26;100.00
71907;BME280;59781;52.090;5.030;2023-04-24T05:25:38;99982.91;;;9.00;100.00
71907;BME280;59781;52.090;5.030;2023-04-24T05:28:08;99985.00;;;9.27;100.00
71907;BME280;59781;52.090;5.030;2023-04-24T05:30:34;99989.53;;;9.27;100.00
71907;BME280;59781;52.090;5.030;2023-04-24T05:33:01;99999.16;;;9.21;100.00
71907;BME280;59781;52.090;5.030;2023-04-24T05:35:27;100006.56;;;9.19;100.00
71907;BME280;59781;52.090;5.030;2023-04-24T05:37:53;100003.47;;;9.45;100.00
71907;BME280;59781;52.090;5.030;2023-04-24T05:40:19;100013.19;;;9.46;100.00
71907;BME280;59781;52.090;5.030;2023-04-24T05:42:44;100026.06;;;9.36;100.00
71907;BME280;59781;52.090;5.030;2023-04-24T05:45:10;100027.75;;;9.14;100.00
71907;BME280;59781;52.090;5.030;2023-04-24T05:47:43;100031.63;;;8.97;100.00
71907;BME280;59781;52.090;5.030;2023-04-24T05:50:10;100038.28;;;9.01;100.00
71907;BME280;59781;52.090;5.030;2023-04-24T05:52:36;100045.75;;;8.90;100.00
71907;BME280;59781;52.090;5.030;2023-04-24T05:55:08;100048.81;;;8.87;100.00
71907;BME280;59781;52.090;5.030;2023-04-24T05:57:36;100058.59;;;8.80;100.00
71907;BME280;59781;52.090;5.030;2023-04-24T06:00:04;100067.53;;;8.73;100.00
71907;BME280;59781;52.090;5.030;2023-04-24T06:02:39;100077.97;;;8.90;100.00
71907;BME280;59781;52.090;5.030;2023-04-24T06:05:07;100085.56;;;8.87;100.00
71907;BME280;59781;52.090;5.030;2023-04-24T06:07:33;100092.88;;;8.93;100.00
71907;BME280;59781;52.090;5.030;2023-04-24T06:10:02;100105.44;;;8.78;100.00
71907;BME280;59781;52.090;5.030;2023-04-24T06:12:33;100118.25;;;8.68;100.00
71907;BME280;59781;52.090;5.030;2023-04-24T06:15:06;100122.09;;;8.65;100.00
71907;BME280;59781;52.090;5.030;2023-04-24T06:17:51;100132.22;;;8.55;100.00
71907;BME280;59781;52.090;5.030;2023-04-24T06:20:18;100131.28;;;8.40;100.00
71907;BME280;59781;52.090;5.030;2023-04-24T06:22:44;100149.38;;;8.46;100.00
71907;BME280;59781;52.090;5.030;2023-04-24T06:25:10;100157.25;;;8.47;100.00
71907;BME280;59781;52.090;5.030;2023-04-24T06:27:36;100169.47;;;8.50;100.00
71907;BME280;59781;52.090;5.030;2023-04-24T06:30:02;100161.69;;;8.63;100.00
71907;BME280;59781;52.090;5.030;2023-04-24T06:32:28;100174.88;;;8.42;100.00
71907;BME280;59781;52.090;5.030;2023-04-24T06:34:56;100174.59;;;8.20;100.00
71907;BME280;59781;52.090;5.030;2023-04-24T06:37:21;100186.81;;;8.39;100.00
71907;BME280;59781;52.090;5.030;2023-04-24T06:39:47;100194.13;;;8.45;100.00
71907;BME280;59781;52.090;5.030;2023-04-24T06:42:13;100200.41;;;8.21;100.00
71907;BME280;59781;52.090;5.030;2023-04-24T06:44:42;100208.06;;;8.32;100.00
71907;BME280;59781;52.090;5.030;2023-04-24T06:47:09;100213.97;;;8.36;100.00
71907;BME280;59781;52.090;5.030;2023-04-24T06:49:36;100215.13;;;8.42;100.00
71907;BME280;59781;52.090;5.030;2023-04-24T06:52:02;100223.00;;;8.35;100.00
71907;BME280;59781;52.090;5.030;2023-04-24T06:54:29;100227.72;;;8.41;100.00
71907;BME280;59781;52.090;5.030;2023-04-24T06:56:56;100229.00;;;8.53;100.00
71907;BME280;59781;52.090;5.030;2023-04-24T06:59:26;100236.09;;;8.38;100.00
71907;BME280;59781;52.090;5.030;2023-04-24T07:01:53;100236.22;;;8.45;100.00
71907;BME280;59781;52.090;5.030;2023-04-24T07:04:20;100239.91;;;8.52;100.00
71907;BME280;59781;52.090;5.030;2023-04-24T07:06:46;100238.06;;;8.52;100.00
71907;BME280;59781;52.090;5.030;2023-04-24T07:09:12;100246.81;;;8.46;100.00
71907;BME280;59781;52.090;5.030;2023-04-24T07:11:46;100256.19;;;8.50;100.00
71907;BME280;59781;52.090;5.030;2023-04-24T07:14:13;100254.31;;;8.67;100.00
71907;BME280;59781;52.090;5.030;2023-04-24T07:16:39;100265.06;;;8.51;100.00
71907;BME280;59781;52.090;5.030;2023-04-24T07:19:05;100268.44;;;8.45;100.00
71907;BME280;59781;52.090;5.030;2023-04-24T07:21:31;100268.94;;;8.48;100.00
71907;BME280;59781;52.090;5.030;2023-04-24T07:23:58;100283.84;;;8.67;100.00
71907;BME280;59781;52.090;5.030;2023-04-24T07:26:28;100286.00;;;8.63;100.00
71907;BME280;59781;52.090;5.030;2023-04-24T07:28:55;100284.28;;;8.79;100.00
71907;BME280;59781;52.090;5.030;2023-04-24T07:31:21;100287.78;;;8.87;100.00
71907;BME280;59781;52.090;5.030;2023-04-24T07:33:48;100286.34;;;9.08;100.00
71907;BME280;59781;52.090;5.030;2023-04-24T07:36:14;100289.75;;;8.94;100.00
71907;BME280;59781;52.090;5.030;2023-04-24T07:38:45;100298.94;;;9.07;100.00
71907;BME280;59781;52.090;5.030;2023-04-24T07:41:12;100308.06;;;8.98;100.00
71907;BME280;59781;52.090;5.030;2023-04-24T07:43:39;100317.38;;;8.71;100.00
71907;BME280;59781;52.090;5.030;2023-04-24T07:46:06;100319.75;;;8.58;100.00
71907;BME280;59781;52.090;5.030;2023-04-24T07:48:33;100323.94;;;8.52;100.00
71907;BME280;59781;52.090;5.030;2023-04-24T07:50:58;100329.13;;;8.70;100.00
71907;BME280;59781;52.090;5.030;2023-04-24T07:53:24;100333.81;;;8.68;100.00
71907;BME280;59781;52.090;5.030;2023-04-24T07:55:50;100335.47;;;8.77;100.00
71907;BME280;59781;52.090;5.030;2023-04-24T07:58:15;100339.38;;;8.67;100.00
71907;BME280;59781;52.090;5.030;2023-04-24T08:00:41;100354.09;;;8.71;100.00
71907;BME280;59781;52.090;5.030;2023-04-24T08:03:07;100349.41;;;8.65;100.00
71907;BME280;59781;52.090;5.030;2023-04-24T08:05:33;100357.16;;;8.68;100.00
71907;BME280;59781;52.090;5.030;2023-04-24T08:07:58;100365.34;;;8.74;100.00
71907;BME280;59781;52.090;5.030;2023-04-24T08:10:25;100375.59;;;8.62;100.00
71907;BME280;59781;52.090;5.030;2023-04-24T08:12:51;100367.88;;;8.59;100.00
71907;BME280;59781;52.090;5.030;2023-04-24T08:15:17;100371.06;;;8.55;100.00
71907;BME280;59781;52.090;5.030;2023-04-24T08:17:43;100376.78;;;8.52;100.00
71907;BME280;59781;52.090;5.030;2023-04-24T08:20:12;100384.84;;;8.60;100.00
71907;BME280;59781;52.090;5.030;2023-04-24T08:22:42;100394.38;;;8.79;100.00
71907;BME280;59781;52.090;5.030;2023-04-24T08:25:10;100397.16;;;9.02;100.00
71907;BME280;59781;52.090;5.030;2023-04-24T08:27:36;100397.13;;;9.18;100.00
71907;BME280;59781;52.090;5.030;2023-04-24T08:30:04;100401.88;;;9.00;100.00
71907;BME280;59781;52.090;5.030;2023-04-24T08:32:30;100409.28;;;8.98;100.00
71907;BME280;59781;52.090;5.030;2023-04-24T08:34:57;100407.41;;;9.14;100.00
71907;BME280;59781;52.090;5.030;2023-04-24T08:37:25;100418.13;;;9.14;100.00
71907;BME280;59781;52.090;5.030;2023-04-24T08:39:52;100425.00;;;9.17;100.00
71907;BME280;59781;52.090;5.030;2023-04-24T08:42:19;100427.81;;;9.32;100.00
71907;BME280;59781;52.090;5.030;2023-04-24T08:44:48;100431.22;;;9.09;100.00
71907;BME280;59781;52.090;5.030;2023-04-24T08:47:16;100433.38;;;9.22;100.00
71907;BME280;59781;52.090;5.030;2023-04-24T08:49:42;100428.66;;;9.24;100.00
71907;BME280;59781;52.090;5.030;2023-04-24T08:52:08;100432.16;;;9.33;100.00
71907;BME280;59781;52.090;5.030;2023-04-24T08:54:35;100441.03;;;9.49;100.00
71907;BME280;59781;52.090;5.030;2023-04-24T08:57:02;100448.81;;;9.36;100.00
71907;BME280;59781;52.090;5.030;2023-04-24T08:59:31;100449.00;;;9.27;100.00
71907;BME280;59781;52.090;5.030;2023-04-24T09:01:59;100455.25;;;8.95;100.00
71907;BME280;59781;52.090;5.030;2023-04-24T09:04:27;100451.22;;;9.07;100.00
71907;BME280;59781;52.090;5.030;2023-04-24T09:06:57;100461.41;;;9.28;100.00
71907;BME280;59781;52.090;5.030;2023-04-24T09:09:24;100459.41;;;9.69;100.00
71907;BME280;59781;52.090;5.030;2023-04-24T09:11:52;100465.13;;;9.74;100.00
71907;BME280;59781;52.090;5.030;2023-04-24T09:14:21;100470.34;;;9.67;100.00
71907;BME280;59781;52.090;5.030;2023-04-24T09:16:50;100464.00;;;9.52;100.00
71907;BME280;59781;52.090;5.030;2023-04-24T09:19:16;100475.13;;;9.49;100.00
71907;BME280;59781;52.090;5.030;2023-04-24T09:21:46;100471.97;;;9.45;100.00
71907;BME280;59781;52.090;5.030;2023-04-24T09:24:16;100466.91;;;9.42;100.00
71907;BME280;59781;52.090;5.030;2023-04-24T09:26:45;100473.34;;;9.25;100.00
71907;BME280;59781;52.090;5.030;2023-04-24T09:29:18;100482.88;;;9.44;100.00
71907;BME280;59781;52.090;5.030;2023-04-24T09:31:45;100497.84;;;9.22;100.00
71907;BME280;59781;52.090;5.030;2023-04-24T09:34:12;100496.00;;;9.31;100.00
71907;BME280;59781;52.090;5.030;2023-04-24T09:36:42;100495.34;;;9.04;100.00
71907;BME280;59781;52.090;5.030;2023-04-24T09:39:14;100502.25;;;8.90;100.00
71907;BME280;59781;52.090;5.030;2023-04-24T09:41:48;100501.03;;;9.34;100.00
71907;BME280;59781;52.090;5.030;2023-04-24T09:44:20;100507.47;;;9.72;100.00
71907;BME280;59781;52.090;5.030;2023-04-24T09:46:58;100513.66;;;9.25;100.00
71907;BME280;59781;52.090;5.030;2023-04-24T09:49:27;100512.50;;;9.03;100.00
71907;BME280;59781;52.090;5.030;2023-04-24T09:52:09;100529.63;;;9.18;100.00
71907;BME280;59781;52.090;5.030;2023-04-24T09:54:36;100538.16;;;9.22;100.00
71907;BME280;59781;52.090;5.030;2023-04-24T09:57:03;100535.16;;;9.17;100.00
71907;BME280;59781;52.090;5.030;2023-04-24T09:59:29;100542.38;;;9.00;100.00
71907;BME280;59781;52.090;5.030;2023-04-24T10:01:56;100545.06;;;9.00;100.00
71907;BME280;59781;52.090;5.030;2023-04-24T10:04:26;100554.47;;;8.80;100.00
71907;BME280;59781;52.090;5.030;2023-04-24T10:06:55;100555.63;;;9.02;100.00
71907;BME280;59781;52.090;5.030;2023-04-24T10:09:24;100558.16;;;9.36;100.00
71907;BME280;59781;52.090;5.030;2023-04-24T10:11:53;100556.94;;;9.55;100.00
71907;BME280;59781;52.090;5.030;2023-04-24T10:14:24;100560.75;;;9.76;100.00
71907;BME280;59781;52.090;5.030;2023-04-24T10:16:53;100546.84;;;9.65;100.00
71907;BME280;59781;52.090;5.030;2023-04-24T10:19:20;100564.97;;;9.63;100.00
71907;BME280;59781;52.090;5.030;2023-04-24T10:21:46;100559.81;;;9.37;100.00
71907;BME280;59781;52.090;5.030;2023-04-24T10:24:16;100557.84;;;9.14;100.00
71907;BME280;59781;52.090;5.030;2023-04-24T10:26:45;100572.25;;;8.89;100.00
71907;BME280;59781;52.090;5.030;2023-04-24T10:29:16;100577.81;;;8.87;100.00
71907;BME280;59781;52.090;5.030;2023-04-24T10:31:44;100569.25;;;9.08;100.00
71907;BME280;59781;52.090;5.030;2023-04-24T10:34:11;100569.22;;;9.41;100.00
71907;BME280;59781;52.090;5.030;2023-04-24T10:36:42;100569.91;;;9.98;100.00
71907;BME280;59781;52.090;5.030;2023-04-24T10:39:14;100579.25;;;10.58;100.00
71907;BME280;59781;52.090;5.030;2023-04-24T10:41:42;100577.53;;;10.88;100.00
71907;BME280;59781;52.090;5.030;2023-04-24T10:46:38;100567.06;;;12.85;100.00
71907;BME280;59781;52.090;5.030;2023-04-24T10:49:05;100568.41;;;12.96;100.00
71907;BME280;59781;52.090;5.030;2023-04-24T10:59:44;100591.00;;;10.34;100.00
71907;BME280;59781;52.090;5.030;2023-04-24T11:02:10;100594.47;;;10.74;100.00
71907;BME280;59781;52.090;5.030;2023-04-24T11:04:36;100588.81;;;10.91;100.00
71907;BME280;59781;52.090;5.030;2023-04-24T11:07:05;100599.09;;;10.57;100.00
71907;BME280;59781;52.090;5.030;2023-04-24T11:09:32;100599.78;;;10.12;100.00
71907;BME280;59781;52.090;5.030;2023-04-24T11:12:08;100603.66;;;10.09;100.00
71907;BME280;59781;52.090;5.030;2023-04-24T11:17:35;100624.13;;;9.14;100.00
71907;BME280;59781;52.090;5.030;2023-04-24T11:20:05;100631.22;;;9.07;100.00
71907;BME280;59781;52.090;5.030;2023-04-24T11:22:41;100633.22;;;9.45;100.00
71907;BME280;59781;52.090;5.030;2023-04-24T11:25:09;100636.66;;;10.03;100.00
71907;BME280;59781;52.090;5.030;2023-04-24T11:27:43;100639.06;;;10.76;100.00
71907;BME280;59781;52.090;5.030;2023-04-24T11:30:11;100636.16;;;11.32;100.00
71907;BME280;59781;52.090;5.030;2023-04-24T11:32:42;100630.72;;;12.22;100.00
71907;BME280;59781;52.090;5.030;2023-04-24T11:37:54;100630.00;;;11.61;100.00
71907;BME280;59781;52.090;5.030;2023-04-24T11:40:21;100635.59;;;11.36;100.00
71907;BME280;59781;52.090;5.030;2023-04-24T11:42:53;100640.69;;;11.69;100.00
71907;BME280;59781;52.090;5.030;2023-04-24T11:45:24;100645.31;;;11.23;100.00
71907;BME280;59781;52.090;5.030;2023-04-24T11:47:53;100648.56;;;11.41;100.00
71907;BME280;59781;52.090;5.030;2023-04-24T11:50:22;100648.72;;;11.77;100.00
71907;BME280;59781;52.090;5.030;2023-04-24T11:52:51;100642.34;;;11.55;100.00
71907;BME280;59781;52.090;5.030;2023-04-24T11:57:50;100652.63;;;11.74;100.00
71907;BME280;59781;52.090;5.030;2023-04-24T12:00:21;100666.13;;;11.74;100.00
71907;BME280;59781;52.090;5.030;2023-04-24T12:02:49;100667.47;;;11.93;100.00
71907;BME280;59781;52.090;5.030;2023-04-24T12:07:46;100675.31;;;11.65;100.00
71907;BME280;59781;52.090;5.030;2023-04-24T12:10:11;100671.22;;;11.32;100.00
71907;BME280;59781;52.090;5.030;2023-04-24T12:12:37;100674.97;;;11.45;100.00
71907;BME280;59781;52.090;5.030;2023-04-24T12:15:07;100677.69;;;11.23;100.00
71907;BME280;59781;52.090;5.030;2023-04-24T12:17:35;100685.16;;;11.12;100.00
71907;BME280;59781;52.090;5.030;2023-04-24T12:20:06;100686.66;;;11.38;100.00
71907;BME280;59781;52.090;5.030;2023-04-24T12:25:13;100693.75;;;11.08;100.00
71907;BME280;59781;52.090;5.030;2023-04-24T12:27:41;100692.84;;;10.93;100.00
71907;BME280;59781;52.090;5.030;2023-04-24T12:30:12;100700.66;;;11.10;100.00
71907;BME280;59781;52.090;5.030;2023-04-24T12:32:46;100703.34;;;11.10;100.00
71907;BME280;59781;52.090;5.030;2023-04-24T12:35:19;100707.97;;;11.25;100.00
71907;BME280;59781;52.090;5.030;2023-04-24T12:37:47;100708.56;;;11.12;100.00
71907;BME280;59781;52.090;5.030;2023-04-24T12:40:14;100712.66;;;11.00;100.00
71907;BME280;59781;52.090;5.030;2023-04-24T12:42:46;100718.00;;;10.38;100.00
71907;BME280;59781;52.090;5.030;2023-04-24T12:45:14;100718.84;;;10.38;100.00
71907;BME280;59781;52.090;5.030;2023-04-24T12:47:42;100738.69;;;10.13;100.00
71907;BME280;59781;52.090;5.030;2023-04-24T12:50:12;100743.75;;;10.07;100.00
71907;BME280;59781;52.090;5.030;2023-04-24T12:52:40;100742.25;;;9.89;100.00
71907;BME280;59781;52.090;5.030;2023-04-24T12:55:07;100734.50;;;10.02;100.00
71907;BME280;59781;52.090;5.030;2023-04-24T12:57:36;100734.34;;;10.28;100.00
71907;BME280;59781;52.090;5.030;2023-04-24T13:00:04;100726.53;;;10.88;100.00
71907;BME280;59781;52.090;5.030;2023-04-24T13:02:33;100729.16;;;12.63;100.00
71907;BME280;59781;52.090;5.030;2023-04-24T13:05:00;100727.81;;;12.15;100.00
71907;BME280;59781;52.090;5.030;2023-04-24T13:07:27;100724.34;;;12.95;100.00
71907;BME280;59781;52.090;5.030;2023-04-24T13:09:55;100728.03;;;12.73;100.00
71907;BME280;59781;52.090;5.030;2023-04-24T13:12:22;100727.97;;;11.76;100.00
71907;BME280;59781;52.090;5.030;2023-04-24T13:14:49;100736.84;;;11.39;100.00
71907;BME280;59781;52.090;5.030;2023-04-24T13:17:15;100741.88;;;11.19;100.00
71907;BME280;59781;52.090;5.030;2023-04-24T13:19:43;100736.69;;;10.78;100.00